createdAt,value
2023-01-19T00:01:22.414Z,96649.72
2023-01-19T00:03:49.867Z,96649.25
2023-01-19T00:06:17.932Z,96643.63
2023-01-19T00:08:48.595Z,96643.31
2023-01-19T00:11:17.409Z,96648.09
2023-01-19T00:13:50.619Z,96653.28
2023-01-19T00:16:19.025Z,96655.09
2023-01-19T00:18:47.006Z,96656.69
2023-01-19T00:21:15.708Z,96659.44
2023-01-19T00:23:43.871Z,96659.22
2023-01-19T00:26:11.448Z,96667.63
2023-01-19T00:28:38.890Z,96664.25
2023-01-19T00:31:07.703Z,96666.63
2023-01-19T00:33:35.160Z,96667.78
2023-01-19T00:36:02.682Z,96663.00
2023-01-19T00:38:30.261Z,96674.94
2023-01-19T00:40:57.738Z,96672.34
2023-01-19T00:43:25.177Z,96664.13
2023-01-19T00:45:53.543Z,96655.59
2023-01-19T00:48:22.357Z,96656.91
2023-01-19T00:50:50.019Z,96671.88
2023-01-19T00:53:17.552Z,96675.09
2023-01-19T00:55:45.013Z,96672.03
2023-01-19T00:58:12.496Z,96673.75
2023-01-19T01:00:39.946Z,96677.31
2023-01-19T01:03:07.542Z,96674.88
2023-01-19T01:05:36.471Z,96675.66
2023-01-19T01:08:05.817Z,96676.44
2023-01-19T01:10:33.180Z,96693.91
2023-01-19T01:13:20.234Z,96690.00
2023-01-19T01:15:50.826Z,96686.50
2023-01-19T01:18:20.717Z,96693.19
2023-01-19T01:20:49.798Z,96711.97
2023-01-19T01:23:22.731Z,96703.59
2023-01-19T01:25:50.336Z,96702.59
2023-01-19T01:28:17.828Z,96694.97
2023-01-19T01:30:45.269Z,96701.47
2023-01-19T01:33:13.221Z,96710.03
2023-01-19T01:35:40.719Z,96713.88
2023-01-19T01:38:10.233Z,96707.34
2023-01-19T01:40:40.282Z,96712.63
2023-01-19T01:43:12.313Z,96701.72
2023-01-19T01:45:41.360Z,96709.75
2023-01-19T01:48:14.000Z,96710.69
2023-01-19T01:51:04.688Z,96710.25
2023-01-19T01:53:38.505Z,96723.16
2023-01-19T01:56:10.940Z,96720.72
2023-01-19T01:58:39.790Z,96717.47
2023-01-19T02:01:26.046Z,96724.84
2023-01-19T02:03:58.346Z,96719.81
2023-01-19T02:06:26.705Z,96711.69
2023-01-19T02:09:20.629Z,96720.47
2023-01-19T02:12:05.929Z,96716.03
2023-01-19T02:14:33.406Z,96707.25
2023-01-19T02:17:01.117Z,96714.84
2023-01-19T02:19:33.578Z,96714.34
2023-01-19T02:22:08.414Z,96717.47
2023-01-19T02:24:40.455Z,96716.13
2023-01-19T02:27:08.820Z,96717.81
2023-01-19T02:29:36.718Z,96732.69
2023-01-19T02:32:05.612Z,96721.72
2023-01-19T02:34:33.709Z,96723.91
2023-01-19T02:37:06.618Z,96720.88
2023-01-19T02:39:38.620Z,96719.06
2023-01-19T02:42:10.216Z,96724.69
2023-01-19T02:44:38.801Z,96721.97
2023-01-19T02:47:06.659Z,96730.03
2023-01-19T02:49:34.129Z,96711.91
2023-01-19T02:52:02.295Z,96719.59
2023-01-19T02:54:42.903Z,96728.91
2023-01-19T02:57:31.982Z,96722.53
2023-01-19T03:00:09.633Z,96719.34
2023-01-19T03:02:47.272Z,96719.38
2023-01-19T03:05:30.910Z,96721.59
2023-01-19T03:08:07.702Z,96733.25
2023-01-19T03:10:46.178Z,96734.59
2023-01-19T03:13:20.164Z,96736.56
2023-01-19T03:15:51.389Z,96743.59
2023-01-19T03:18:24.435Z,96744.84
2023-01-19T03:20:54.639Z,96754.47
2023-01-19T03:23:26.927Z,96755.44
2023-01-19T03:25:57.946Z,96747.75
2023-01-19T03:28:28.987Z,96742.75
2023-01-19T03:31:01.447Z,96750.53
2023-01-19T03:33:32.697Z,96759.31
2023-01-19T03:36:05.926Z,96749.31
2023-01-19T03:38:36.815Z,96751.94
2023-01-19T03:41:09.742Z,96761.59
2023-01-19T03:43:39.653Z,96764.91
2023-01-19T03:46:08.331Z,96773.78
2023-01-19T03:48:36.656Z,96771.47
2023-01-19T03:51:06.022Z,96767.47
2023-01-19T03:53:33.658Z,96770.56
2023-01-19T03:56:01.683Z,96768.41
2023-01-19T03:58:30.542Z,96775.97
2023-01-19T04:00:58.063Z,96771.34
2023-01-19T04:03:25.649Z,96776.47
2023-01-19T04:05:53.077Z,96775.06
2023-01-19T04:08:20.588Z,96777.06
2023-01-19T04:10:48.011Z,96772.47
2023-01-19T04:13:16.788Z,96773.78
2023-01-19T04:15:45.624Z,96783.31
2023-01-19T04:18:13.106Z,96783.41
2023-01-19T04:20:40.616Z,96783.47
2023-01-19T04:23:08.087Z,96785.03
2023-01-19T04:25:37.320Z,96783.16
2023-01-19T04:28:05.922Z,96780.38
2023-01-19T04:30:33.373Z,96771.53
2023-01-19T04:33:02.823Z,96773.41
2023-01-19T04:35:30.589Z,96769.34
2023-01-19T04:37:58.080Z,96765.28
2023-01-19T04:40:25.519Z,96777.25
2023-01-19T04:42:54.291Z,96773.03
2023-01-19T04:45:21.947Z,96781.72
2023-01-19T04:47:51.212Z,96770.25
2023-01-19T04:50:20.006Z,96774.91
2023-01-19T04:52:48.840Z,96782.81
2023-01-19T04:55:16.688Z,96788.13
2023-01-19T04:57:45.383Z,96787.78
2023-01-19T05:00:14.124Z,96788.69
2023-01-19T05:02:43.877Z,96792.69
2023-01-19T05:05:11.859Z,96796.03
2023-01-19T05:07:43.736Z,96801.13
2023-01-19T05:10:12.648Z,96794.66
2023-01-19T05:12:40.340Z,96790.56
2023-01-19T05:15:09.610Z,96788.84
2023-01-19T05:17:36.949Z,96787.16
2023-01-19T05:20:05.025Z,96794.16
2023-01-19T05:22:32.818Z,96791.91
2023-01-19T05:25:02.443Z,96804.16
2023-01-19T05:27:29.949Z,96799.66
2023-01-19T05:29:57.362Z,96803.88
2023-01-19T05:32:25.048Z,96798.69
2023-01-19T05:34:52.574Z,96800.53
2023-01-19T05:37:20.069Z,96800.19
2023-01-19T05:39:47.582Z,96801.09
2023-01-19T05:42:17.025Z,96798.25
2023-01-19T05:44:44.458Z,96798.91
2023-01-19T05:47:12.044Z,96805.44
2023-01-19T05:49:39.481Z,96799.22
2023-01-19T05:52:07.017Z,96809.47
2023-01-19T05:54:34.518Z,96818.47
2023-01-19T05:57:02.932Z,96823.31
2023-01-19T05:59:31.746Z,96827.97
2023-01-19T06:01:59.855Z,96818.91
2023-01-19T06:04:27.664Z,96818.06
2023-01-19T06:06:55.146Z,96823.63
2023-01-19T06:09:22.618Z,96819.78
2023-01-19T06:11:50.286Z,96825.91
2023-01-19T06:14:17.787Z,96826.00
2023-01-19T06:16:46.680Z,96830.06
2023-01-19T06:19:14.894Z,96825.47
2023-01-19T06:21:42.506Z,96819.09
2023-01-19T06:24:10.526Z,96820.75
2023-01-19T06:26:37.985Z,96824.81
2023-01-19T06:29:05.408Z,96830.47
2023-01-19T06:31:32.928Z,96823.91
2023-01-19T06:34:01.740Z,96828.84
2023-01-19T06:36:29.344Z,96830.16
2023-01-19T06:38:56.790Z,96840.72
2023-01-19T06:41:24.359Z,96829.69
2023-01-19T06:43:51.823Z,96833.06
2023-01-19T06:46:19.292Z,96831.47
2023-01-19T06:48:46.800Z,96839.88
2023-01-19T06:51:15.580Z,96838.41
2023-01-19T06:53:43.018Z,96846.28
2023-01-19T06:56:10.841Z,96839.88
2023-01-19T06:58:39.012Z,96845.16
2023-01-19T07:01:08.043Z,96850.53
2023-01-19T07:03:37.852Z,96844.75
2023-01-19T07:06:07.485Z,96856.00
2023-01-19T07:08:37.444Z,96854.38
2023-01-19T07:11:23.584Z,96859.44
2023-01-19T07:13:55.563Z,96856.72
2023-01-19T07:16:23.764Z,96861.91
2023-01-19T07:18:51.611Z,96859.97
2023-01-19T07:21:19.426Z,96864.44
2023-01-19T07:23:50.615Z,96864.31
2023-01-19T07:26:21.106Z,96859.47
2023-01-19T07:28:49.230Z,96854.81
2023-01-19T07:31:17.800Z,96857.69
2023-01-19T07:33:45.725Z,96868.63
2023-01-19T07:36:13.702Z,96865.25
2023-01-19T07:38:41.243Z,96872.91
2023-01-19T07:41:11.358Z,96869.34
2023-01-19T07:43:38.963Z,96868.50
2023-01-19T07:46:07.922Z,96874.81
2023-01-19T07:48:35.500Z,96874.16
2023-01-19T07:51:05.982Z,96874.25
2023-01-19T07:53:33.683Z,96883.44
2023-01-19T07:56:01.577Z,96890.56
2023-01-19T07:58:30.602Z,96895.19
2023-01-19T08:00:58.220Z,96898.00
2023-01-19T08:03:25.800Z,96896.28
2023-01-19T08:05:54.066Z,96903.94
2023-01-19T08:08:21.641Z,96906.63
2023-01-19T08:10:50.990Z,96900.63
2023-01-19T08:13:19.007Z,96910.47
2023-01-19T08:15:50.305Z,96903.13
2023-01-19T08:18:18.141Z,96903.44
2023-01-19T08:20:45.872Z,96912.69
2023-01-19T08:23:13.569Z,96907.63
2023-01-19T08:25:44.300Z,96911.22
2023-01-19T08:28:13.558Z,96909.66
2023-01-19T08:30:44.902Z,96909.91
2023-01-19T08:33:14.511Z,96914.91
2023-01-19T08:35:43.917Z,96915.19
2023-01-19T08:38:11.577Z,96915.69
2023-01-19T08:40:41.886Z,96919.31
2023-01-19T08:43:11.340Z,96922.53
2023-01-19T08:45:46.375Z,96925.78
2023-01-19T08:48:15.629Z,96931.34
2023-01-19T08:50:43.160Z,96927.84
2023-01-19T08:53:11.193Z,96930.53
2023-01-19T08:55:39.611Z,96932.47
2023-01-19T08:58:08.842Z,96933.59
2023-01-19T09:00:37.843Z,96940.16
2023-01-19T09:03:06.441Z,96941.94
2023-01-19T09:05:38.828Z,96928.69
2023-01-19T09:08:09.203Z,96942.69
2023-01-19T09:10:37.803Z,96940.19
2023-01-19T09:13:05.530Z,96938.69
2023-01-19T09:15:35.697Z,96942.13
2023-01-19T09:18:04.726Z,96953.94
2023-01-19T09:20:33.725Z,96950.66
2023-01-19T09:23:02.836Z,96956.53
2023-01-19T09:25:30.281Z,96948.75
2023-01-19T09:28:00.024Z,96947.13
2023-01-19T09:30:28.245Z,96943.81
2023-01-19T09:32:55.776Z,96956.03
2023-01-19T09:35:23.236Z,96957.75
2023-01-19T09:37:50.697Z,96950.16
2023-01-19T09:40:24.437Z,96961.31
2023-01-19T09:42:56.846Z,96971.94
2023-01-19T09:45:31.563Z,96968.16
2023-01-19T09:48:01.082Z,96968.81
2023-01-19T09:50:36.375Z,96969.72
2023-01-19T09:53:13.718Z,96975.31
2023-01-19T09:55:43.484Z,96971.72
2023-01-19T09:58:16.136Z,96961.81
2023-01-19T10:00:47.508Z,96959.06
2023-01-19T10:03:17.237Z,96962.13
2023-01-19T10:05:50.161Z,96962.84
2023-01-19T10:08:24.083Z,96961.16
2023-01-19T10:10:55.745Z,96955.03
2023-01-19T10:13:30.627Z,96966.44
2023-01-19T10:16:06.554Z,96957.66
2023-01-19T10:18:47.298Z,96960.28
2023-01-19T10:21:19.135Z,96958.88
2023-01-19T10:23:53.101Z,96968.81
2023-01-19T10:26:24.718Z,96966.09
2023-01-19T10:28:56.201Z,96965.94
2023-01-19T10:31:25.695Z,96971.00
2023-01-19T10:33:54.122Z,96961.72
2023-01-19T10:36:26.788Z,96959.00
2023-01-19T10:38:54.316Z,96962.69
2023-01-19T10:41:29.375Z,96974.50
2023-01-19T10:44:02.600Z,96961.13
2023-01-19T10:46:36.273Z,96963.16
2023-01-19T10:49:04.323Z,96967.75
2023-01-19T10:51:31.779Z,96962.13
2023-01-19T10:54:01.877Z,96957.75
2023-01-19T10:56:34.809Z,96953.00
2023-01-19T10:59:04.658Z,96958.94
2023-01-19T11:01:36.838Z,96942.22
2023-01-19T11:04:23.226Z,96945.41
2023-01-19T11:06:50.749Z,96941.19
2023-01-19T11:09:20.293Z,96942.84
2023-01-19T11:11:51.924Z,96937.56
2023-01-19T11:14:21.755Z,96937.19
2023-01-19T11:16:52.557Z,96937.66
2023-01-19T11:19:28.220Z,96931.22
2023-01-19T11:22:10.553Z,96930.41
2023-01-19T11:24:39.653Z,96926.66
2023-01-19T11:27:08.535Z,96929.09
2023-01-19T11:29:38.840Z,96936.16
2023-01-19T11:32:20.077Z,96932.06
2023-01-19T11:34:47.551Z,96942.84
2023-01-19T11:37:30.705Z,96931.00
2023-01-19T11:40:00.017Z,96928.50
2023-01-19T11:42:33.471Z,96932.13
2023-01-19T11:45:05.686Z,96934.66
2023-01-19T11:47:42.128Z,96923.41
2023-01-19T11:50:16.482Z,96923.75
2023-01-19T11:52:46.847Z,96923.66
2023-01-19T11:55:22.240Z,96930.00
2023-01-19T11:57:54.305Z,96926.91
2023-01-19T12:00:29.717Z,96932.81
2023-01-19T12:03:05.309Z,96922.31
2023-01-19T12:05:35.238Z,96926.25
2023-01-19T12:08:09.512Z,96929.34
2023-01-19T12:10:41.474Z,96921.88
2023-01-19T12:13:20.480Z,96924.53
2023-01-19T12:15:51.456Z,96930.31
2023-01-19T12:18:23.091Z,96930.31
2023-01-19T12:20:52.818Z,96940.50
2023-01-19T12:23:30.632Z,96940.03
2023-01-19T12:26:09.394Z,96930.81
2023-01-19T12:28:42.872Z,96932.84
2023-01-19T12:31:10.993Z,96932.25
2023-01-19T12:33:40.242Z,96931.22
2023-01-19T12:36:11.340Z,96927.53
2023-01-19T12:38:45.251Z,96921.97
2023-01-19T12:41:34.589Z,96915.78
2023-01-19T12:44:30.373Z,96914.63
2023-01-19T12:47:03.733Z,96921.72
2023-01-19T12:49:35.581Z,96925.66
2023-01-19T12:52:18.881Z,96927.78
2023-01-19T12:54:54.180Z,96923.00
2023-01-19T12:57:23.797Z,96929.66
2023-01-19T12:59:59.232Z,96925.19
2023-01-19T13:02:50.791Z,96926.47
2023-01-19T13:05:23.117Z,96931.94
2023-01-19T13:08:18.255Z,96931.44
2023-01-19T13:11:14.966Z,96920.97
2023-01-19T13:13:44.917Z,96923.78
2023-01-19T13:16:58.253Z,96928.41
2023-01-19T13:19:38.092Z,96921.53
2023-01-19T13:22:38.805Z,96916.06
2023-01-19T13:25:08.749Z,96926.53
2023-01-19T13:27:36.636Z,96925.19
2023-01-19T13:30:12.110Z,96916.59
2023-01-19T13:32:42.094Z,96917.69
2023-01-19T13:35:15.766Z,96910.22
2023-01-19T13:37:45.643Z,96916.06
2023-01-19T13:40:20.707Z,96920.28
2023-01-19T13:42:49.529Z,96917.50
2023-01-19T13:45:25.639Z,96918.69
2023-01-19T13:47:54.718Z,96916.13
2023-01-19T13:50:26.358Z,96926.06
2023-01-19T13:52:55.526Z,96913.97
2023-01-19T13:55:23.665Z,96927.69
2023-01-19T13:57:52.528Z,96922.44
2023-01-19T14:00:23.652Z,96921.72
2023-01-19T14:02:58.764Z,96928.69
2023-01-19T14:05:29.907Z,96931.91
2023-01-19T14:08:02.190Z,96929.06
2023-01-19T14:10:31.205Z,96937.44
2023-01-19T14:13:03.194Z,96933.84
2023-01-19T14:15:32.615Z,96933.56
2023-01-19T14:18:11.808Z,96936.16
2023-01-19T14:20:44.028Z,96937.81
2023-01-19T14:23:43.500Z,96947.78
2023-01-19T14:26:46.434Z,96937.88
2023-01-19T14:29:25.990Z,96942.34
2023-01-19T14:32:05.904Z,96941.22
2023-01-19T14:34:36.134Z,96943.59
2023-01-19T14:37:06.852Z,96942.03
2023-01-19T14:39:35.904Z,96942.91
2023-01-19T14:42:07.590Z,96944.22
2023-01-19T14:44:37.879Z,96940.09
2023-01-19T14:47:06.681Z,96944.09
2023-01-19T14:49:37.342Z,96939.00
2023-01-19T14:52:20.546Z,96938.19
2023-01-19T14:54:49.230Z,96945.69
2023-01-19T14:57:16.721Z,96949.59
2023-01-19T14:59:48.317Z,96945.81
2023-01-19T15:02:15.960Z,96939.88
2023-01-19T15:04:43.547Z,96948.50
2023-01-19T15:07:18.280Z,96940.03
2023-01-19T15:09:46.497Z,96944.06
2023-01-19T15:12:17.549Z,96939.75
2023-01-19T15:14:45.944Z,96941.28
2023-01-19T15:17:18.724Z,96935.22
2023-01-19T15:19:46.221Z,96940.19
2023-01-19T15:22:14.997Z,96938.38
2023-01-19T15:24:42.432Z,96941.72
2023-01-19T15:27:12.060Z,96951.47
2023-01-19T15:29:40.857Z,96937.59
2023-01-19T15:32:13.409Z,96941.16
2023-01-19T15:34:40.955Z,96943.19
2023-01-19T15:37:08.583Z,96949.44
2023-01-19T15:39:37.446Z,96947.50
2023-01-19T15:42:04.912Z,96949.06
2023-01-19T15:44:32.363Z,96947.53
2023-01-19T15:46:59.818Z,96942.31
2023-01-19T15:49:27.412Z,96942.22
2023-01-19T15:51:54.848Z,96944.13
2023-01-19T15:54:22.394Z,96945.97
2023-01-19T15:56:52.553Z,96952.03
2023-01-19T15:59:20.051Z,96945.81
2023-01-19T16:01:47.721Z,96949.06
2023-01-19T16:04:17.951Z,96952.22
2023-01-19T16:06:47.854Z,96948.88
2023-01-19T16:09:18.349Z,96945.75
2023-01-19T16:11:45.884Z,96949.56
2023-01-19T16:14:16.682Z,96954.50
2023-01-19T16:16:46.160Z,96955.78
2023-01-19T16:19:15.086Z,96957.31
2023-01-19T16:21:43.739Z,96960.16
2023-01-19T16:24:11.244Z,96958.00
2023-01-19T16:26:38.670Z,96966.19
2023-01-19T16:29:09.802Z,96971.09
2023-01-19T16:31:40.772Z,96958.09
2023-01-19T16:34:08.679Z,96959.13
2023-01-19T16:36:38.578Z,96957.50
2023-01-19T16:39:07.860Z,96966.25
2023-01-19T16:41:36.113Z,96959.50
2023-01-19T16:44:04.325Z,96967.09
2023-01-19T16:46:34.962Z,96968.06
2023-01-19T16:49:06.068Z,96965.59
2023-01-19T16:51:34.341Z,96964.41
2023-01-19T16:54:01.780Z,96956.47
2023-01-19T16:56:29.675Z,96963.41
2023-01-19T16:58:58.534Z,96961.97
2023-01-19T17:01:27.440Z,96969.22
2023-01-19T17:03:56.355Z,96968.69
2023-01-19T17:06:26.460Z,96972.94
2023-01-19T17:08:54.361Z,96975.91
2023-01-19T17:11:24.441Z,96975.22
2023-01-19T17:13:55.093Z,96973.31
2023-01-19T17:16:23.600Z,96985.50
2023-01-19T17:18:51.582Z,96981.31
2023-01-19T17:21:19.950Z,96975.84
2023-01-19T17:23:51.523Z,96982.22
2023-01-19T17:26:19.147Z,96986.22
2023-01-19T17:28:47.314Z,96981.22
2023-01-19T17:31:16.522Z,96982.72
2023-01-19T17:33:44.881Z,96984.78
2023-01-19T17:36:14.096Z,96982.72
2023-01-19T17:38:41.583Z,96980.16
2023-01-19T17:41:15.254Z,96981.25
2023-01-19T17:43:43.185Z,96979.50
2023-01-19T17:46:11.290Z,96983.03
2023-01-19T17:48:41.319Z,96984.00
2023-01-19T17:51:11.701Z,96978.00
2023-01-19T17:53:40.176Z,96983.25
2023-01-19T17:56:10.495Z,96993.94
2023-01-19T17:58:39.702Z,97001.72
2023-01-19T18:01:10.353Z,96982.88
2023-01-19T18:03:37.943Z,96984.28
2023-01-19T18:06:06.567Z,96990.78
2023-01-19T18:08:36.166Z,96999.09
2023-01-19T18:11:04.160Z,96998.41
2023-01-19T18:13:31.727Z,96997.41
2023-01-19T18:16:01.982Z,96999.31
2023-01-19T18:18:30.221Z,97006.16
2023-01-19T18:20:59.713Z,97007.97
2023-01-19T18:23:27.185Z,97004.16
2023-01-19T18:25:59.217Z,97001.19
2023-01-19T18:28:27.166Z,97004.97
2023-01-19T18:30:55.011Z,97013.88
2023-01-19T18:33:23.869Z,97007.81
2023-01-19T18:35:51.383Z,97008.97
2023-01-19T18:38:19.066Z,97010.59
2023-01-19T18:40:46.604Z,97004.34
2023-01-19T18:43:15.023Z,97006.63
2023-01-19T18:45:42.501Z,97011.06
2023-01-19T18:48:10.109Z,97009.31
2023-01-19T18:50:39.557Z,97004.84
2023-01-19T18:53:06.990Z,97007.81
2023-01-19T18:55:36.231Z,97008.78
2023-01-19T18:58:04.077Z,97009.47
2023-01-19T19:00:31.606Z,97006.84
2023-01-19T19:02:59.897Z,97011.09
2023-01-19T19:05:27.377Z,97007.91
2023-01-19T19:07:56.181Z,97016.25
2023-01-19T19:10:23.626Z,97010.09
2023-01-19T19:12:51.083Z,97010.25
2023-01-19T19:15:18.672Z,97009.25
2023-01-19T19:17:46.114Z,97008.41
2023-01-19T19:20:14.271Z,97011.25
2023-01-19T19:22:41.942Z,97008.59
2023-01-19T19:25:11.021Z,97008.47
2023-01-19T19:27:38.604Z,97004.44
2023-01-19T19:30:06.960Z,97015.31
2023-01-19T19:32:34.402Z,97015.72
2023-01-19T19:35:01.877Z,97010.34
2023-01-19T19:37:30.102Z,97017.88
2023-01-19T19:39:57.869Z,97019.28
2023-01-19T19:42:28.783Z,97013.63
2023-01-19T19:44:56.517Z,97019.41
2023-01-19T19:47:24.386Z,97021.22
2023-01-19T19:49:51.873Z,97029.47
2023-01-19T19:52:19.362Z,97023.59
2023-01-19T19:54:48.880Z,97026.84
2023-01-19T19:57:16.388Z,97036.41
2023-01-19T19:59:45.158Z,97023.84
2023-01-19T20:02:13.463Z,97027.84
2023-01-19T20:04:40.995Z,97025.84
2023-01-19T20:07:08.495Z,97019.34
2023-01-19T20:09:37.222Z,97021.38
2023-01-19T20:12:04.900Z,97015.28
2023-01-19T20:14:32.373Z,97030.53
2023-01-19T20:17:01.481Z,97023.19
2023-01-19T20:19:31.154Z,97030.88
2023-01-19T20:21:59.913Z,97033.88
2023-01-19T20:24:27.379Z,97034.72
2023-01-19T20:26:56.156Z,97034.34
2023-01-19T20:29:23.802Z,97038.28
2023-01-19T20:31:53.618Z,97035.34
2023-01-19T20:34:24.865Z,97033.94
2023-01-19T20:36:53.778Z,97040.25
2023-01-19T20:39:23.144Z,97044.75
2023-01-19T20:41:51.460Z,97051.69
2023-01-19T20:44:20.697Z,97051.63
2023-01-19T20:46:48.211Z,97043.28
2023-01-19T20:49:15.930Z,97041.03
2023-01-19T20:51:46.736Z,97049.94
2023-01-19T20:54:16.471Z,97049.63
2023-01-19T20:56:44.125Z,97052.31
2023-01-19T20:59:11.977Z,97052.41
2023-01-19T21:01:40.816Z,97054.22
2023-01-19T21:04:08.920Z,97049.31
2023-01-19T21:06:36.690Z,97058.72
2023-01-19T21:09:05.912Z,97062.34
2023-01-19T21:11:33.227Z,97060.91
2023-01-19T21:14:00.752Z,97060.53
2023-01-19T21:16:30.528Z,97062.47
2023-01-19T21:18:58.214Z,97063.81
2023-01-19T21:21:31.724Z,97062.16
2023-01-19T21:24:00.965Z,97062.38
2023-01-19T21:26:30.800Z,97070.75
2023-01-19T21:28:58.694Z,97065.16
2023-01-19T21:31:27.982Z,97066.50
2023-01-19T21:33:55.836Z,97072.13
2023-01-19T21:36:24.468Z,97075.34
2023-01-19T21:38:52.243Z,97070.31
2023-01-19T21:41:20.042Z,97070.75
2023-01-19T21:43:48.914Z,97075.25
2023-01-19T21:46:19.764Z,97071.94
2023-01-19T21:48:47.919Z,97077.91
2023-01-19T21:51:16.409Z,97075.84
2023-01-19T21:53:44.097Z,97086.94
2023-01-19T21:56:12.156Z,97083.50
2023-01-19T21:58:40.052Z,97079.56
2023-01-19T22:01:10.745Z,97075.41
2023-01-19T22:03:38.458Z,97076.22
2023-01-19T22:06:07.545Z,97077.53
2023-01-19T22:08:35.477Z,97082.34
2023-01-19T22:11:05.366Z,97084.41
2023-01-19T22:13:33.063Z,97086.78
2023-01-19T22:16:01.566Z,97096.56
2023-01-19T22:18:30.450Z,97098.66
2023-01-19T22:21:08.483Z,97095.09
2023-01-19T22:23:35.973Z,97092.69
2023-01-19T22:26:04.202Z,97103.19
2023-01-19T22:28:31.927Z,97099.16
2023-01-19T22:31:04.660Z,97096.63
2023-01-19T22:33:33.853Z,97109.44
2023-01-19T22:36:15.377Z,97102.44
2023-01-19T22:38:43.892Z,97098.69
2023-01-19T22:41:15.746Z,97102.56
2023-01-19T22:43:44.391Z,97110.28
2023-01-19T22:46:12.130Z,97106.03
2023-01-19T22:48:41.425Z,97099.84
2023-01-19T22:51:08.902Z,97103.84
2023-01-19T22:53:36.404Z,97103.31
2023-01-19T22:56:11.522Z,97100.97
2023-01-19T22:58:40.238Z,97100.50
2023-01-19T23:01:08.898Z,97096.25
2023-01-19T23:03:36.795Z,97105.13
2023-01-19T23:06:07.385Z,97092.59
2023-01-19T23:08:35.578Z,97101.97
2023-01-19T23:11:07.180Z,97095.91
2023-01-19T23:13:35.132Z,97097.78
2023-01-19T23:16:03.446Z,97100.81
2023-01-19T23:18:31.485Z,97095.84
2023-01-19T23:21:03.411Z,97097.53
2023-01-19T23:23:32.425Z,97098.38
2023-01-19T23:26:02.163Z,97101.81
2023-01-19T23:28:29.837Z,97095.53
2023-01-19T23:30:57.488Z,97097.75
2023-01-19T23:33:25.025Z,97109.56
2023-01-19T23:35:53.001Z,97104.56
2023-01-19T23:38:22.398Z,97108.81
2023-01-19T23:40:51.379Z,97108.81
2023-01-19T23:43:18.861Z,97108.22
2023-01-19T23:45:46.384Z,97111.19
2023-01-19T23:48:13.812Z,97108.53
2023-01-19T23:50:41.577Z,97105.44
2023-01-19T23:53:09.101Z,97117.88
2023-01-19T23:55:36.554Z,97117.44
2023-01-19T23:58:05.459Z,97114.19
